Time,TemperatureF,DewpointF,PressureIn,WindDirection,WindDirectionDegrees,WindSpeedMPH,WindSpeedGustMPH,Humidity,HourlyPrecipIn,Conditions,Clouds,dailyrainin,SoftwareType,DateUTC
2013-01-13 00:00:00,22.1,15.9,29.91,NW,309,3.4,6.0,68,0.00,NA,NA,0.00,meteo_script,2013-01-13 06:00:00,
2013-01-13 00:30:00,21.6,14.3,29.89,NW,323,1.7,4.0,63,0.00,NA,NA,0.00,meteo_script,2013-01-13 06:30:00,
2013-01-13 01:00:00,21.3,14.0,29.90,NW,325,2.5,5.0,63,0.00,NA,NA,0.00,meteo_script,2013-01-13 07:00:00,
2013-01-13 01:30:00,21.1,13.6,29.88,North,358,4.5,7.0,62,0.00,NA,NA,0.00,meteo_script,2013-01-13 07:30:00,
2013-01-13 02:00:00,20.4,12.8,29.84,North,1,3.3,5.0,62,0.00,NA,NA,0.00,meteo_script,2013-01-13 08:00:00,
2013-01-13 02:30:00,20.4,13.2,29.89,North,357,1.2,3.0,63,0.00,NA,NA,0.00,meteo_script,2013-01-13 08:30:00,
2013-01-13 03:00:00,20.7,13.4,29.90,North,0,0.8,2.0,63,0.00,NA,NA,0.00,meteo_script,2013-01-13 09:00:00,
2013-01-13 03:30:00,20.4,13.1,29.92,NW,304,1.3,3.0,63,0.00,NA,NA,0.00,meteo_script,2013-01-13 09:30:00,
2013-01-13 04:00:00,20.1,12.8,29.87,North,352,2.2,4.0,63,0.00,NA,NA,0.00,meteo_script,2013-01-13 10:00:00,
2013-01-13 04:30:00,19.6,12.1,29.88,North,0,2.9,5.0,62,0.00,NA,NA,0.00,meteo_script,2013-01-13 10:30:00,
2013-01-13 05:00:00,19.3,12.1,29.90,North,351,0.9,3.0,63,0.00,NA,NA,0.00,meteo_script,2013-01-13 11:00:00,
2013-01-13 05:30:00,19.3,11.8,29.94,North,0,0.0,0.0,62,0.00,NA,NA,0.00,meteo_script,2013-01-13 11:30:00,
2013-01-13 06:00:00,19.1,11.7,29.95,WNW,284,1.6,4.0,62,0.00,NA,NA,0.00,meteo_script,2013-01-13 12:00:00,
2013-01-13 06:30:00,18.2,10.7,29.93,NNW,332,0.6,2.0,61,0.00,NA,NA,0.00,meteo_script,2013-01-13 12:30:00,
2013-01-13 07:00:00,17.8,10.4,29.92,North,357,0.4,2.0,62,0.00,NA,NA,0.00,meteo_script,2013-01-13 13:00:00,
2013-01-13 07:30:00,17.4,10.3,29.95,NW,317,0.7,3.0,63,0.00,NA,NA,0.00,meteo_script,2013-01-13 13:30:00,
2013-01-13 08:00:00,17.1,9.8,29.97,NW,304,2.3,5.0,62,0.00,NA,NA,0.00,meteo_script,2013-01-13 14:00:00,
2013-01-13 08:30:00,17.2,9.7,29.98,WNW,302,2.8,4.0,61,0.00,NA,NA,0.00,meteo_script,2013-01-13 14:30:00,
2013-01-13 09:00:00,17.6,9.7,29.98,West,262,0.6,2.0,60,0.00,NA,NA,0.00,meteo_script,2013-01-13 15:00:00,
2013-01-13 09:30:00,17.7,9.6,29.98,NNW,345,2.4,4.0,59,0.00,NA,NA,0.00,meteo_script,2013-01-13 15:30:00,
2013-01-13 10:00:00,18.2,10.0,29.96,West,281,3.4,7.0,58,0.00,NA,NA,0.00,meteo_script,2013-01-13 16:00:00,
2013-01-13 10:30:00,18.7,10.3,29.94,West,279,3.1,7.0,58,0.00,NA,NA,0.00,meteo_script,2013-01-13 16:30:00,
2013-01-13 11:00:00,18.4,9.7,29.94,WNW,291,3.3,7.0,57,0.00,NA,NA,0.00,meteo_script,2013-01-13 17:00:00,
2013-01-13 11:30:00,19.2,10.2,29.95,WSW,254,2.1,3.0,56,0.00,NA,NA,0.00,meteo_script,2013-01-13 17:30:00,
2013-01-13 12:00:00,19.2,9.7,29.94,West,281,2.1,3.0,54,0.00,NA,NA,0.00,meteo_script,2013-01-13 18:00:00,
2013-01-13 12:30:00,20.5,10.6,29.95,WNW,289,4.5,9.0,53,0.00,NA,NA,0.00,meteo_script,2013-01-13 18:30:00,
2013-01-13 13:00:00,21.5,10.9,29.95,WSW,250,8.9,12.0,51,0.00,NA,NA,0.00,meteo_script,2013-01-13 19:00:00,
2013-01-13 13:30:00,21.5,10.9,29.92,WNW,291,4.1,6.0,51,0.00,NA,NA,0.00,meteo_script,2013-01-13 19:30:00,
2013-01-13 14:00:00,20.9,9.9,29.94,West,266,6.5,11.0,49,0.00,NA,NA,0.00,meteo_script,2013-01-13 20:00:00,
2013-01-13 14:30:00,21.0,9.9,29.94,NNW,335,2.0,4.0,49,0.00,NA,NA,0.00,meteo_script,2013-01-13 20:30:00,
2013-01-13 15:00:00,20.1,9.6,29.98,WNW,301,1.2,3.0,50,0.00,NA,NA,0.00,meteo_script,2013-01-13 21:00:00,
2013-01-13 15:30:00,19.3,8.7,29.96,WNW,300,3.9,7.0,50,0.00,NA,NA,0.00,meteo_script,2013-01-13 21:30:00,
2013-01-13 16:00:00,17.8,8.1,29.98,West,277,1.8,9.0,53,0.00,NA,NA,0.00,meteo_script,2013-01-13 22:00:00,
2013-01-13 16:30:00,17.3,7.9,29.98,WNW,290,1.1,3.0,54,0.00,NA,NA,0.00,meteo_script,2013-01-13 22:30:00,
2013-01-13 17:00:00,16.6,7.5,30.01,West,272,4.8,9.0,55,0.00,NA,NA,0.00,meteo_script,2013-01-13 23:00:00,
2013-01-13 17:30:00,15.9,6.6,30.02,WNW,294,3.4,7.0,54,0.00,NA,NA,0.00,meteo_script,2013-01-13 23:30:00,
2013-01-13 18:00:00,15.1,5.9,30.04,WSW,256,7.5,10.0,54,0.00,NA,NA,0.00,meteo_script,2013-01-14 00:00:00,
2013-01-13 18:30:00,14.4,5.4,30.05,West,278,7.0,10.0,55,0.00,NA,NA,0.00,meteo_script,2013-01-14 00:30:00,
2013-01-13 19:00:00,13.7,5.3,30.07,WNW,287,4.2,7.0,57,0.00,NA,NA,0.00,meteo_script,2013-01-14 01:00:00,
2013-01-13 19:30:00,13.5,5.0,30.06,WNW,285,4.4,10.0,56,0.00,NA,NA,0.00,meteo_script,2013-01-14 01:30:00,
2013-01-13 20:00:00,13.3,5.0,30.08,WNW,282,3.0,5.0,57,0.00,NA,NA,0.00,meteo_script,2013-01-14 02:00:00,
2013-01-13 20:30:00,13.5,5.2,30.08,West,267,7.2,10.0,57,0.00,NA,NA,0.00,meteo_script,2013-01-14 02:30:00,
2013-01-13 21:00:00,13.4,5.0,30.09,West,278,4.4,9.0,57,0.00,NA,NA,0.00,meteo_script,2013-01-14 03:00:00,
2013-01-13 21:30:00,13.5,5.2,30.11,West,266,4.0,7.0,57,0.00,NA,NA,0.00,meteo_script,2013-01-14 03:30:00,
2013-01-13 22:00:00,13.3,5.2,30.12,West,278,3.6,6.0,58,0.00,NA,NA,0.00,meteo_script,2013-01-14 04:00:00,
2013-01-13 22:30:00,13.3,5.2,30.10,West,279,2.4,4.0,58,0.00,NA,NA,0.00,meteo_script,2013-01-14 04:30:00,
2013-01-13 23:00:00,13.2,5.1,30.11,WNW,297,3.5,7.0,58,0.00,NA,NA,0.00,meteo_script,2013-01-14 05:00:00,
2013-01-13 23:30:00,12.7,4.9,30.13,WNW,287,1.6,4.0,59,0.00,NA,NA,0.00,meteo_script,2013-01-14 05:30:00,